Map

Track Data

SID SEASON NUMBER BASIN SUBBASIN NAME ISO_TIME NATURE LAT LON WMO_WIND WMO_PRES WMO_AGENCY TRACK_TYPE DIST2LAND LANDFALL IFLAG USA_AGENCY USA_ATCF_ID USA_LAT USA_LON USA_RECORD USA_STATUS USA_WIND USA_PRES USA_SSHS USA_R34_NE USA_R34_SE USA_R34_SW USA_R34_NW USA_R50_NE USA_R50_SE USA_R50_SW USA_R50_NW USA_R64_NE USA_R64_SE USA_R64_SW USA_R64_NW USA_POCI USA_ROCI USA_RMW USA_EYE TOKYO_LAT TOKYO_LON TOKYO_GRADE TOKYO_WIND TOKYO_PRES TOKYO_R50_DIR TOKYO_R50_LONG TOKYO_R50_SHORT TOKYO_R30_DIR TOKYO_R30_LONG TOKYO_R30_SHORT TOKYO_LAND CMA_LAT CMA_LON CMA_CAT CMA_WIND CMA_PRES HKO_LAT HKO_LON HKO_CAT HKO_WIND HKO_PRES NEWDELHI_LAT NEWDELHI_LON NEWDELHI_GRADE NEWDELHI_WIND NEWDELHI_PRES NEWDELHI_CI NEWDELHI_DP NEWDELHI_POCI REUNION_LAT REUNION_LON REUNION_TYPE REUNION_WIND REUNION_PRES REUNION_TNUM REUNION_CI REUNION_RMW REUNION_R34_NE REUNION_R34_SE REUNION_R34_SW REUNION_R34_NW REUNION_R50_NE REUNION_R50_SE REUNION_R50_SW REUNION_R50_NW REUNION_R64_NE REUNION_R64_SE REUNION_R64_SW REUNION_R64_NW BOM_LAT BOM_LON BOM_TYPE BOM_WIND BOM_PRES BOM_TNUM BOM_CI BOM_RMW BOM_R34_NE BOM_R34_SE BOM_R34_SW BOM_R34_NW BOM_R50_NE BOM_R50_SE BOM_R50_SW BOM_R50_NW BOM_R64_NE BOM_R64_SE BOM_R64_SW BOM_R64_NW BOM_ROCI BOM_POCI BOM_EYE BOM_POS_METHOD BOM_PRES_METHOD NADI_LAT NADI_LON NADI_CAT NADI_WIND NADI_PRES WELLINGTON_LAT WELLINGTON_LON WELLINGTON_WIND WELLINGTON_PRES DS824_LAT DS824_LON DS824_STAGE DS824_WIND DS824_PRES TD9636_LAT TD9636_LON TD9636_STAGE TD9636_WIND TD9636_PRES TD9635_LAT TD9635_LON TD9635_WIND TD9635_PRES TD9635_ROCI NEUMANN_LAT NEUMANN_LON NEUMANN_CLASS NEUMANN_WIND NEUMANN_PRES MLC_LAT MLC_LON MLC_CLASS MLC_WIND MLC_PRES USA_GUST BOM_GUST BOM_GUST_PER REUNION_GUST REUNION_GUST_PER USA_SEAHGT USA_SEARAD_NE USA_SEARAD_SE USA_SEARAD_SW USA_SEARAD_NW STORM_SPEED STORM_DIR
1989143N17090 1989 40 NI BB NOT_NAMED 1989-05-23 00:00:00 NR 16.9000 90.3000 main 428 417 O_________O___ jtwc_io IO011989 16.9000 90.3000 25 -1 16.9000 90.3000 1 25 7 344
1989143N17090 1989 40 NI BB NOT_NAMED 1989-05-23 03:00:00 NR 17.2245 90.2026 main 421 410 P_________P___ IO011989 17.2725 90.2101 27 -1 17.1766 90.1952 1 26 7 342
1989143N17090 1989 40 NI BB NOT_NAMED 1989-05-23 06:00:00 NR 17.5312 90.0911 main 414 398 O_________P___ jtwc_io IO011989 17.6000 90.1000 30 -1 17.4625 90.0822 1 27 6 338
1989143N17090 1989 40 NI BB NOT_NAMED 1989-05-23 09:00:00 NR 17.8123 89.9553 main 398 390 P_________P___ IO011989 17.8575 89.9574 30 -1 17.7672 89.9532 1 28 6 334
1989143N17090 1989 40 NI BB NOT_NAMED 1989-05-23 12:00:00 NR 18.1000 89.8000 main 391 363 O_________O___ jtwc_io IO011989 18.1000 89.8000 30 -1 18.1000 89.8000 1 30 7 334
1989143N17090 1989 40 NI BB NOT_NAMED 1989-05-23 15:00:00 NR 18.4237 89.6414 main 361 327 P_________P___ IO011989 18.3849 89.6649 30 -1 18.4625 89.6179 1 30 7 334
1989143N17090 1989 40 NI BB NOT_NAMED 1989-05-23 18:00:00 NR 18.7625 89.4578 main 315 279 O_________P___ jtwc_io IO011989 18.7000 89.5000 30 -1 18.8251 89.4156 1 30 8 331
1989143N17090 1989 40 NI BB NOT_NAMED 1989-05-23 21:00:00 NR 19.1150 89.2316 main 279 246 P_________P___ IO011989 19.0800 89.2577 30 -1 19.1500 89.2055 1 30 8 326
1989143N17090 1989 40 NI BB NOT_NAMED 1989-05-24 00:00:00 NR 19.4000 89.0000 main 246 230 O_________O___ jtwc_io IO011989 19.4000 89.0000 30 -1 19.4000 89.0000 1 30 6 317
1989143N17090 1989 40 NI BB NOT_NAMED 1989-05-24 03:00:00 NR 19.5468 88.7971 main 230 207 P_________P___ IO011989 19.5525 88.7849 32 -1 19.5412 88.8093 1 31 4 299
1989143N17090 1989 40 NI BB NOT_NAMED 1989-05-24 06:00:00 NR 19.6025 88.6135 main 207 199 O_________P___ jtwc_io IO011989 19.6000 88.6000 35 0 19.6049 88.6270 1 32 3 283
1989143N17090 1989 40 NI BB NOT_NAMED 1989-05-24 09:00:00 NR 19.6193 88.4531 main 199 183 P_________P___ IO011989 19.6224 88.4500 35 0 19.6162 88.4563 1 33 3 270
1989143N17090 1989 40 NI BB NOT_NAMED 1989-05-24 12:00:00 NR 19.6000 88.3000 main 183 165 O_________O___ jtwc_io IO011989 19.6000 88.3000 35 0 19.6000 88.3000 2 35 3 261
1989143N17090 1989 40 NI BB NOT_NAMED 1989-05-24 15:00:00 NR 19.5652 88.1105 main 165 156 P_________P___ IO011989 19.5501 88.0850 37 0 19.5803 88.1361 2 37 3 257
1989143N17090 1989 40 NI BB NOT_NAMED 1989-05-24 18:00:00 NR 19.5212 87.9449 main 154 154 O_________P___ jtwc_io IO011989 19.5000 87.9000 40 0 19.5425 87.9898 2 40 3 255
1989143N17090 1989 40 NI BB NOT_NAMED 1989-05-24 21:00:00 NR 19.4967 87.8468 main 145 145 P_________P___ IO011989 19.4850 87.8200 42 0 19.5084 87.8737 2 42 1 261
1989143N17090 1989 40 NI BB NOT_NAMED 1989-05-25 00:00:00 NR 19.5000 87.8000 main 145 145 O_________O___ jtwc_io IO011989 19.5000 87.8000 45 0 19.5000 87.8000 2 45 1 306
1989143N17090 1989 40 NI BB NOT_NAMED 1989-05-25 03:00:00 NR 19.5365 87.7936 main 145 139 P_________P___ IO011989 19.5350 87.7850 45 0 19.5381 87.8021 2 45 1 12
1989143N17090 1989 40 NI BB NOT_NAMED 1989-05-25 06:00:00 NR 19.6025 87.8212 main 139 139 O_________P___ jtwc_io IO011989 19.6000 87.8000 45 0 19.6049 87.8423 2 45 2 27
1989143N17090 1989 40 NI BB NOT_NAMED 1989-05-25 09:00:00 NR 19.6859 87.8794 main 142 137 P_________P___ IO011989 19.6775 87.8724 45 0 19.6943 87.8864 2 45 2 22
1989143N17090 1989 40 NI BB NOT_NAMED 1989-05-25 12:00:00 NR 19.8000 87.9000 main 137 122 O_________O___ jtwc_io IO011989 19.8000 87.9000 45 0 19.8000 87.9000 2 45 3 344
1989143N17090 1989 40 NI BB NOT_NAMED 1989-05-25 15:00:00 NR 19.9490 87.7965 main 122 99 P_________P___ IO011989 20.0076 87.7652 45 0 19.8904 87.8279 2 46 4 323
1989143N17090 1989 40 NI BB NOT_NAMED 1989-05-25 18:00:00 NR 20.0988 87.6613 main 99 83 O_________P___ jtwc_io IO011989 20.2000 87.6000 45 0 19.9976 87.7226 2 47 3 319
1989143N17090 1989 40 NI BB NOT_NAMED 1989-05-25 21:00:00 NR 20.1905 87.5704 main 83 68 P_________P___ IO011989 20.2500 87.5349 47 0 20.1310 87.6060 2 48 3 323
1989143N17090 1989 40 NI BB NOT_NAMED 1989-05-26 00:00:00 NR 20.3000 87.5000 main 68 47 O_________O___ jtwc_io IO011989 20.3000 87.5000 50 0 20.3000 87.5000 2 50 3 337
1989143N17090 1989 40 NI BB NOT_NAMED 1989-05-26 03:00:00 NR 20.4781 87.4428 main 47 41 P_________P___ IO011989 20.4625 87.4500 50 0 20.4937 87.4355 2 51 4 346
1989143N17090 1989 40 NI BB NOT_NAMED 1989-05-26 06:00:00 NR 20.7125 87.3924 main 41 38 O_________P___ jtwc_io IO011989 20.7000 87.4000 50 0 20.7250 87.3848 2 52 5 350
1989143N17090 1989 40 NI BB NOT_NAMED 1989-05-26 09:00:00 NR 20.9894 87.3459 main 38 30 P_________P___ IO011989 20.9850 87.3500 52 0 20.9937 87.3417 2 53 6 351
1989143N17090 1989 40 NI BB NOT_NAMED 1989-05-26 12:00:00 NR 21.3000 87.3000 main 30 0 O_________O___ jtwc_io IO011989 21.3000 87.3000 55 0 21.3000 87.3000 2 55 6 354
1989143N17090 1989 40 NI BB NOT_NAMED 1989-05-26 15:00:00 NR 21.5897 87.2772 main 0 0 P_________P___ IO011989 21.5775 87.2500 52 0 21.6020 87.3044 2 51 6 357
1989143N17090 1989 40 NI BB NOT_NAMED 1989-05-26 18:00:00 NR 21.9220 87.2503 main 0 0 O_________P___ jtwc_io IO011989 21.9000 87.2000 50 0 21.9440 87.3007 2 47 7 356
1989143N17090 1989 40 NI BB NOT_NAMED 1989-05-26 21:00:00 NR 22.3258 87.2169 main 0 0 P_________P___ IO011989 22.3124 87.1870 45 0 22.3391 87.2468 2 43 9 351
1989143N17090 1989 40 NI BB NOT_NAMED 1989-05-27 00:00:00 NR 22.8000 87.1000 main 0 0 O_________O___ jtwc_io IO011989 22.8000 87.1000 40 0 22.8000 87.1000 2 40 11 341
1989143N17090 1989 40 NI BB NOT_NAMED 1989-05-27 03:00:00 NR 23.3342 86.8430 main 0 0 P_________P___ IO011989 23.3378 86.8509 32 -1 23.3307 86.8351 2 32 12 333
1989143N17090 1989 40 NI BB NOT_NAMED 1989-05-27 06:00:00 NR 23.9000 86.5000 main 0 O_________O___ jtwc_io IO011989 23.9000 86.5000 25 -1 23.9000 86.5000 1 25 13 331

About IBTrACS Database

This database is a web-friendly format of International Best Track Archive for Climate Stewardship (IBTrACS), a global best track data archive curated by NOAA dating back to 1842.

Updated: 2021-10-08